KPNM Airport (Princeton Muni) Information

FAA: PNM - ICAO: KPNM

KPNM Airport Location

State Minnesota
County Mille Lacs
City Princeton
KPNM Airport is 1 miles southwest of Princeton, MN.
Latitude 45-33-35.5000N
Longitude 093-36-29.6000W
Elevation 979ft

KPNM Airport METARs

METAR KPNM 282315Z AUTO 00000KT BKN065 30/16 A2951 RMK AO2 PWINO TSNO
Altimeter 29.51"
Temperature 30.0°C (86.0°F)
Wind 0° at 0KT
Clouds broken at 6,500ft
Visibility mi
Time observed: 2022-05-28T23:15:00Z

KPNM Airport Details

Status Operational
Activation December 1953
Ownership Public
Usage Public
Chart TWIN CITIES
ATC on-site No
Beacon schedule sunset-sunrise
Beacon color clear green

KPNM Airport Contacts

Owner CITY OF PRINCETON
Owner address 705 N 2ND ST, PRINCETON, MN 55371
Owner phone 763-389-2040
Manager JIM RIEBER
Manager address 1000 CONEY ST WEST, PERHAM, MN 56673
Manager phone (218) 347-1314

KPNM Airport (Princeton Muni) Radio Frequencies

KPNM (Airport) Radio Frequencies

UNICOM 123
Common traffic advisory frequency (CTAF) 123